Time;durP1;ratioP1;P1;durP2;ratioP2;P2;SDS_P1;SDS_P2;PMS_P1;PMS_P2;Temp;Humidity;BMP_temperature;BMP_pressure;BME280_temperature;BME280_humidity;BME280_pressure;Samples;Min_cycle;Max_cycle;Signal;HPM_P1;HPM_P2
2022/04/22 00:00:58;;;;;;;21.95;4.13;;;16.30;99.90;;;;;;5095956;28;20042;-83
2022/04/22 00:03:24;;;;;;;26.88;4.78;;;16.40;99.90;;;;;;5095886;28;20027;-83
2022/04/22 00:05:57;;;;;;;16.40;4.47;;;16.40;99.90;;;;;;5095746;28;20031;-83
2022/04/22 00:08:23;;;;;;;33.65;4.60;;;16.40;99.90;;;;;;5095830;28;20028;-83
2022/04/22 00:13:34;;;;;;;;;;;16.40;99.90;;;;;;5096036;28;20040;-84
2022/04/22 00:16:02;;;;;;;30.60;4.97;;;16.50;99.90;;;;;;5095611;28;19916;-83
2022/04/22 00:18:31;;;;;;;36.88;4.85;;;16.50;99.90;;;;;;5095617;28;20112;-83
2022/04/22 00:20:58;;;;;;;20.73;3.92;;;16.50;99.90;;;;;;5078576;28;20082;-83
2022/04/22 00:23:26;;;;;;;27.40;4.22;;;16.40;99.90;;;;;;5095483;28;20031;-83
2022/04/22 00:25:53;;;;;;;32.55;4.55;;;16.40;99.90;;;;;;5078495;28;20504;-83
2022/04/22 00:28:23;;;;;;;25.45;4.50;;;16.40;99.90;;;;;;5095328;28;20385;-83
2022/04/22 00:30:50;;;;;;;22.60;4.32;;;16.40;99.90;;;;;;5095284;28;20035;-83
2022/04/22 00:33:20;;;;;;;24.35;3.78;;;16.30;99.90;;;;;;5095240;28;20107;-83
2022/04/22 00:35:46;;;;;;;20.05;3.70;;;16.40;99.90;;;;;;5078182;28;20062;-83
2022/04/22 00:38:13;;;;;;;23.55;4.00;;;16.30;99.90;;;;;;5095227;28;20055;-82
2022/04/22 00:40:40;;;;;;;22.23;4.30;;;16.30;99.90;;;;;;5078377;28;20052;-83
2022/04/22 00:43:15;;;;;;;24.40;4.75;;;16.30;99.90;;;;;;5078371;28;20069;-83
2022/04/22 00:45:42;;;;;;;28.15;4.03;;;16.30;99.90;;;;;;5094973;28;20054;-83
2022/04/22 00:48:09;;;;;;;31.00;4.57;;;16.30;99.90;;;;;;5078182;28;20573;-83
2022/04/22 00:50:37;;;;;;;23.52;4.57;;;16.30;99.90;;;;;;5095080;28;20055;-83
2022/04/22 00:53:07;;;;;;;41.85;6.28;;;16.30;99.90;;;;;;5078087;28;20425;-83
2022/04/22 00:55:37;;;;;;;17.63;4.28;;;16.30;99.90;;;;;;5094009;28;20051;-83
2022/04/22 00:58:05;;;;;;;32.05;4.05;;;16.30;99.90;;;;;;5078044;28;20028;-83
2022/04/22 01:00:37;;;;;;;28.48;4.20;;;16.30;99.90;;;;;;5094784;28;20032;-82
2022/04/22 01:03:05;;;;;;;29.27;4.25;;;16.30;99.90;;;;;;5111710;28;20031;-83
2022/04/22 01:11:05;;;;;;;22.70;3.95;;;16.30;99.90;;;;;;5076827;28;20028;-83
2022/04/22 01:13:32;;;;;;;34.78;6.05;;;16.30;99.90;;;;;;5093671;28;20025;-83
2022/04/22 01:15:58;;;;;;;24.58;4.63;;;16.30;99.90;;;;;;5093238;28;20536;-83
2022/04/22 01:18:25;;;;;;;26.17;4.43;;;16.20;99.90;;;;;;5093449;28;20016;-83
2022/04/22 01:20:51;;;;;;;31.25;4.93;;;16.20;99.90;;;;;;5093241;28;20048;-83
2022/04/22 01:23:21;;;;;;;30.48;4.55;;;16.20;99.90;;;;;;5093450;28;20484;-83
2022/04/22 01:25:47;;;;;;;19.73;3.95;;;16.20;99.90;;;;;;5076738;28;20091;-83
2022/04/22 01:28:14;;;;;;;33.10;4.85;;;16.20;99.90;;;;;;5093219;28;20553;-83
2022/04/22 01:30:41;;;;;;;34.95;6.30;;;16.20;99.90;;;;;;5076492;28;20047;-83
2022/04/22 01:33:07;;;;;;;27.77;4.07;;;16.10;99.90;;;;;;5093400;28;20020;-83
2022/04/22 01:35:33;;;;;;;30.20;4.72;;;16.20;99.90;;;;;;5093090;28;20091;-84
2022/04/22 01:38:00;;;;;;;33.58;5.00;;;16.20;99.90;;;;;;5077017;28;20020;-83
2022/04/22 01:40:27;;;;;;;30.63;4.43;;;16.20;99.90;;;;;;5093887;28;20028;-83
2022/04/22 01:42:55;;;;;;;35.92;4.85;;;16.20;99.90;;;;;;5093889;28;20020;-83
2022/04/22 01:45:22;;;;;;;38.95;5.53;;;16.20;99.90;;;;;;5110926;28;20031;-84
2022/04/22 01:47:51;;;;;;;36.72;4.70;;;16.20;99.90;;;;;;5076323;28;20020;-83
2022/04/22 01:50:18;;;;;;;31.63;5.43;;;16.20;99.90;;;;;;5075917;28;20031;-83
2022/04/22 01:52:45;;;;;;;30.10;4.90;;;16.20;99.90;;;;;;5093675;28;20028;-83
2022/04/22 01:55:11;;;;;;;27.67;4.55;;;16.20;99.90;;;;;;5076248;28;20131;-84
2022/04/22 01:57:38;;;;;;;27.63;4.68;;;16.20;99.90;;;;;;5093434;28;20550;-83
2022/04/22 02:00:06;;;;;;;30.77;4.57;;;16.20;99.90;;;;;;5076835;28;20469;-83
2022/04/22 02:02:32;;;;;;;26.73;4.18;;;16.10;99.90;;;;;;5093540;28;20165;-83
2022/04/22 02:04:59;;;;;;;18.20;3.55;;;16.10;99.90;;;;;;5076339;28;20070;-83
2022/04/22 02:07:25;;;;;;;30.33;4.43;;;16.10;99.90;;;;;;5076582;28;20031;-83
2022/04/22 02:09:52;;;;;;;35.00;4.93;;;16.10;99.90;;;;;;5093224;28;20031;-83
2022/04/22 02:12:19;;;;;;;35.60;4.68;;;16.10;99.90;;;;;;5093404;28;20019;-83
2022/04/22 02:14:45;;;;;;;29.65;4.90;;;16.10;99.90;;;;;;5093177;28;20046;-83
2022/04/22 02:17:11;;;;;;;36.10;4.72;;;16.10;99.90;;;;;;5093338;28;20112;-83
2022/04/22 02:19:40;;;;;;;25.73;4.60;;;16.00;99.90;;;;;;5093185;28;20028;-83
2022/04/22 02:22:07;;;;;;;31.42;5.70;;;16.10;99.90;;;;;;5093369;28;20073;-84
2022/04/22 02:24:34;;;;;;;32.22;5.38;;;16.00;99.90;;;;;;5093458;28;20097;-83
2022/04/22 02:29:46;;;;;;;50.30;6.68;;;16.00;99.90;;;;;;5093145;28;20024;-84
2022/04/22 02:32:12;;;;;;;37.53;5.13;;;16.00;99.90;;;;;;5076338;28;20052;-83
2022/04/22 02:34:39;;;;;;;38.95;5.47;;;16.00;99.90;;;;;;5093015;28;20028;-83
2022/04/22 02:37:05;;;;;;;41.42;6.07;;;15.90;99.90;;;;;;5076176;28;20059;-83
2022/04/22 02:39:32;;;;;;;38.75;5.65;;;16.00;99.90;;;;;;5092931;28;20397;-83
2022/04/22 02:47:34;;;;;;;36.58;5.60;;;15.90;99.90;;;;;;5092956;28;20077;-83
2022/04/22 02:50:01;;;;;;;31.60;6.10;;;15.90;99.90;;;;;;5075902;28;20031;-83
2022/04/22 02:52:27;;;;;;;39.75;6.20;;;15.90;99.90;;;;;;5093028;28;20210;-83
2022/04/22 02:54:54;;;;;;;46.35;7.25;;;15.80;99.90;;;;;;5092572;28;20051;-83
2022/04/22 02:57:21;;;;;;;36.13;6.47;;;15.90;99.90;;;;;;5092807;28;20024;-83
2022/04/22 02:59:48;;;;;;;36.95;6.50;;;15.90;99.90;;;;;;5092816;28;20039;-83
2022/04/22 03:02:14;;;;;;;30.25;5.90;;;15.80;99.90;;;;;;5092868;28;20035;-83
2022/04/22 03:04:41;;;;;;;31.15;6.07;;;15.80;99.90;;;;;;5075799;28;20103;-83
2022/04/22 03:07:10;;;;;;;35.00;6.07;;;15.80;99.90;;;;;;5092777;28;20035;-83
2022/04/22 03:09:37;;;;;;;34.22;6.70;;;15.70;99.90;;;;;;5075915;28;20052;-83
2022/04/22 03:12:08;;;;;;;37.70;7.20;;;15.80;99.90;;;;;;5092580;28;20035;-83
2022/04/22 03:14:34;;;;;;;39.30;6.43;;;15.70;99.90;;;;;;5092849;28;20481;-83
2022/04/22 03:17:02;;;;;;;41.10;7.72;;;15.70;99.90;;;;;;5077807;28;20032;-83
2022/04/22 03:19:29;;;;;;;39.25;7.15;;;15.70;99.90;;;;;;5097071;28;20031;-83
2022/04/22 03:21:55;;;;;;;44.95;7.28;;;15.70;99.90;;;;;;5079853;28;20024;-83
2022/04/22 03:24:22;;;;;;;49.05;7.68;;;15.60;99.90;;;;;;5096605;28;20370;-85
2022/04/22 03:26:48;;;;;;;41.92;7.70;;;15.60;99.90;;;;;;5079907;28;20484;-84
2022/04/22 03:29:17;;;;;;;39.72;7.53;;;15.60;99.90;;;;;;5079861;28;20451;-84
2022/04/22 03:31:44;;;;;;;33.15;6.97;;;15.60;99.90;;;;;;5096743;28;20030;-84
2022/04/22 03:34:32;;;;;;;41.38;7.38;;;15.60;99.90;;;;;;5079837;28;20380;-84
2022/04/22 03:37:21;;;;;;;;;;;15.60;99.90;;;;;;5098340;28;20048;-84
2022/04/22 03:40:02;;;;;;;51.13;7.63;;;15.60;99.90;;;;;;5098475;28;19912;-84
2022/04/22 03:42:29;;;;;;;59.95;9.55;;;15.60;99.90;;;;;;5098245;28;20051;-85
2022/04/22 03:44:58;;;;;;;54.50;7.82;;;15.60;99.90;;;;;;5080829;28;20027;-85
2022/04/22 03:47:25;;;;;;;44.10;7.03;;;15.60;99.90;;;;;;5096755;28;20032;-85
2022/04/22 03:49:54;;;;;;;44.85;7.47;;;15.60;99.90;;;;;;5096474;28;20024;-85
2022/04/22 03:52:24;;;;;;;61.45;10.30;;;15.60;99.90;;;;;;5096392;28;20044;-86
2022/04/22 03:54:52;;;;;;;52.85;8.52;;;15.60;99.90;;;;;;5096064;28;20477;-88
2022/04/22 04:00:04;;;;;;;51.38;8.75;;;15.60;99.90;;;;;;5096475;28;20082;-87
2022/04/22 04:02:30;;;;;;;50.40;8.70;;;15.60;99.90;;;;;;5096493;28;20020;-84
2022/04/22 04:04:57;;;;;;;49.78;8.25;;;15.60;99.90;;;;;;5096046;28;20024;-85
2022/04/22 04:07:23;;;;;;;43.92;8.45;;;15.60;99.90;;;;;;5096220;28;20031;-86
2022/04/22 04:18:05;;;;;;;41.75;7.85;;;15.70;99.90;;;;;;5095723;28;20066;-84
2022/04/22 04:23:18;;;;;;;43.30;8.10;;;15.70;99.90;;;;;;5095179;28;20031;-82
2022/04/22 04:25:50;;;;;;;58.38;8.82;;;15.70;99.90;;;;;;5078438;28;20027;-83
2022/04/22 04:28:17;;;;;;;53.45;8.65;;;15.70;99.90;;;;;;5095059;28;20115;-82
2022/04/22 04:30:45;;;;;;;48.05;9.20;;;15.80;99.90;;;;;;5078425;28;20024;-83
2022/04/22 04:33:12;;;;;;;56.90;8.57;;;15.80;99.90;;;;;;5078193;28;20035;-84
2022/04/22 04:35:39;;;;;;;55.47;8.65;;;15.80;99.90;;;;;;5078692;28;20040;-83
2022/04/22 04:38:07;;;;;;;42.67;8.05;;;15.80;99.90;;;;;;5095330;28;20035;-85
2022/04/22 04:40:34;;;;;;;45.97;7.65;;;15.80;99.90;;;;;;5078893;28;20153;-86
2022/04/22 04:43:02;;;;;;;51.05;8.68;;;15.80;99.90;;;;;;5095412;28;20484;-85
2022/04/22 04:45:28;;;;;;;49.83;8.05;;;15.80;99.90;;;;;;5078458;28;20028;-86
2022/04/22 04:47:55;;;;;;;60.22;8.55;;;15.80;99.90;;;;;;5095032;28;20085;-83
2022/04/22 04:50:22;;;;;;;52.75;7.68;;;15.80;99.90;;;;;;5077913;28;20028;-83
2022/04/22 04:52:48;;;;;;;53.15;8.70;;;15.90;99.90;;;;;;5094635;28;20035;-84
2022/04/22 04:55:16;;;;;;;52.60;8.93;;;15.80;99.90;;;;;;5094128;28;20048;-83
2022/04/22 04:57:44;;;;;;;47.90;8.05;;;15.90;99.90;;;;;;5077760;28;20031;-83
2022/04/22 05:00:12;;;;;;;55.13;8.75;;;15.90;99.90;;;;;;5078162;28;20026;-83
2022/04/22 05:02:39;;;;;;;39.90;8.27;;;15.90;99.90;;;;;;5094510;28;20107;-84
2022/04/22 05:05:06;;;;;;;58.72;8.07;;;15.90;99.90;;;;;;5077333;28;20070;-83
2022/04/22 05:07:53;;;;;;;54.17;8.63;;;16.00;99.90;;;;;;5077447;28;20093;-85
2022/04/22 05:10:21;;;;;;;55.30;8.15;;;16.00;99.90;;;;;;5100369;28;20104;-84
2022/04/22 05:12:49;;;;;;;44.85;8.02;;;16.00;99.90;;;;;;5077295;28;20031;-82
2022/04/22 05:15:17;;;;;;;54.42;8.50;;;16.00;99.90;;;;;;5077112;28;20066;-83
2022/04/22 05:17:45;;;;;;;52.78;7.93;;;16.10;99.90;;;;;;5094404;28;20028;-84
2022/04/22 05:20:13;;;;;;;52.97;9.02;;;16.10;99.90;;;;;;5094297;28;20027;-84
2022/04/22 05:22:40;;;;;;;52.22;9.40;;;16.10;99.90;;;;;;5091660;28;20040;-84
2022/04/22 05:25:10;;;;;;;50.42;8.18;;;16.10;99.90;;;;;;5076866;28;20023;-84
2022/04/22 05:27:37;;;;;;;53.83;9.48;;;16.00;99.90;;;;;;5077082;28;20078;-83
2022/04/22 05:32:51;;;;;;;53.80;8.15;;;16.10;99.90;;;;;;5094271;28;20032;-84
2022/04/22 05:35:23;;;;;;;47.60;9.35;;;16.10;99.90;;;;;;5076572;28;20028;-84
2022/04/22 05:37:52;;;;;;;39.72;8.27;;;16.00;99.90;;;;;;5093861;28;20468;-84
2022/04/22 05:40:21;;;;;;;51.08;9.13;;;16.00;99.90;;;;;;5076614;28;20036;-85
2022/04/22 05:42:49;;;;;;;50.65;8.80;;;16.00;99.90;;;;;;5077629;28;20042;-85
2022/04/22 05:45:16;;;;;;;38.92;8.52;;;16.10;99.90;;;;;;5077588;28;20111;-86
2022/04/22 05:47:44;;;;;;;54.05;9.18;;;16.00;99.90;;;;;;5077332;28;20034;-85
2022/04/22 05:50:14;;;;;;;57.40;9.70;;;16.10;99.90;;;;;;5077074;28;20078;-84
2022/04/22 05:52:42;;;;;;;49.10;8.05;;;16.00;99.90;;;;;;5077098;28;20028;-85
2022/04/22 05:55:19;;;;;;;64.32;9.77;;;16.00;99.90;;;;;;5055791;28;20053;-84
2022/04/22 05:57:47;;;;;;;52.60;8.50;;;16.00;99.90;;;;;;5089845;28;20033;-84
2022/04/22 06:00:19;;;;;;;47.03;8.30;;;16.10;99.90;;;;;;5089802;28;20044;-87
2022/04/22 06:02:46;;;;;;;54.88;9.23;;;16.10;99.90;;;;;;5039773;28;20029;-86
2022/04/22 06:05:15;;;;;;;48.92;9.18;;;16.10;99.90;;;;;;5056547;28;20094;-85
2022/04/22 06:07:44;;;;;;;52.13;8.73;;;16.10;99.90;;;;;;5073498;28;20114;-86
2022/04/22 06:10:32;;;;;;;51.50;9.60;;;16.10;99.90;;;;;;5089755;28;20036;-86
2022/04/22 06:13:00;;;;;;;56.13;9.63;;;16.20;99.90;;;;;;5039627;28;20066;-85
2022/04/22 06:57:21;;;;;;;;;;;;;;;;;;;;;
2022/04/22 07:00:50;;;;;;;65.40;9.93;;;16.50;99.90;;;;;;5361232;23;20058;-93
2022/04/22 08:44:06;;;;;;;58.90;8.30;;;19.30;99.90;;;;;;4973275;29;20485;-95
2022/04/22 11:26:45;;;;;;;;;;;;;;;;;;;;;
2022/04/22 18:51:37;;;;;;;133.10;16.00;;;16.60;99.90;;;;;;5030897;28;20143;-91
2022/04/22 18:54:08;;;;;;;120.80;14.95;;;16.40;99.90;;;;;;5031011;28;20029;-93
2022/04/22 18:56:38;;;;;;;166.75;18.60;;;16.30;99.90;;;;;;5013829;28;20501;-92
2022/04/22 18:59:08;;;;;;;148.93;19.30;;;16.40;99.90;;;;;;5010259;28;20050;-93
2022/04/22 19:01:44;;;;;;;137.88;17.52;;;16.40;99.90;;;;;;5007095;28;20034;-92
2022/04/22 19:58:44;;;;;;;;;;;;;;;;;;;;;
2022/04/22 20:41:12;;;;;;;122.60;16.65;;;15.80;99.90;;;;;;4943580;23;20540;-86
2022/04/22 20:51:10;;;;;;;123.10;16.27;;;15.70;99.90;;;;;;5420336;23;20575;-92
2022/04/22 20:53:49;;;;;;;137.25;16.58;;;15.70;99.90;;;;;;4915080;29;20134;-93
2022/04/22 20:56:21;;;;;;;94.13;14.57;;;15.70;99.90;;;;;;4914867;29;20032;-90
2022/04/22 20:58:52;;;;;;;133.88;15.88;;;15.70;99.90;;;;;;4915211;29;20031;-91
2022/04/22 21:01:22;;;;;;;109.55;15.63;;;15.60;99.90;;;;;;4918083;29;20426;-92
2022/04/22 21:03:49;;;;;;;138.32;17.60;;;15.60;99.90;;;;;;4919049;29;20056;-92
2022/04/22 21:06:15;;;;;;;120.95;17.25;;;15.50;99.90;;;;;;4935256;29;20087;-92
2022/04/22 21:08:44;;;;;;;129.20;16.85;;;15.50;99.90;;;;;;4918033;29;20107;-93
2022/04/22 21:11:11;;;;;;;123.88;16.10;;;15.50;99.90;;;;;;4922196;29;20095;-91
2022/04/22 21:13:38;;;;;;;119.50;16.13;;;15.50;99.90;;;;;;4905730;29;20393;-92
2022/04/22 21:16:06;;;;;;;116.55;14.35;;;15.50;99.90;;;;;;4905650;29;20043;-92
2022/04/22 21:18:32;;;;;;;117.10;15.35;;;15.50;99.90;;;;;;4906404;29;20072;-91
2022/04/22 21:21:00;;;;;;;121.50;15.77;;;15.40;99.90;;;;;;4905332;29;20077;-92
2022/04/22 21:23:27;;;;;;;123.93;16.25;;;15.40;99.90;;;;;;4906234;29;20047;-92
2022/04/22 21:25:54;;;;;;;141.55;20.23;;;15.40;99.90;;;;;;4905603;29;20122;-93
2022/04/22 21:28:21;;;;;;;116.97;17.15;;;15.40;99.90;;;;;;4905817;29;20032;-92
2022/04/22 21:30:51;;;;;;;135.40;20.42;;;15.30;99.90;;;;;;4905211;29;20035;-91
2022/04/22 21:33:17;;;;;;;122.82;18.80;;;15.30;99.90;;;;;;4905458;29;20060;-92
2022/04/22 21:35:45;;;;;;;119.28;17.58;;;15.30;99.90;;;;;;4905450;29;20034;-92
2022/04/22 21:38:15;;;;;;;106.57;16.45;;;15.30;99.90;;;;;;4921083;29;20045;-91
2022/04/22 21:40:45;;;;;;;114.65;16.85;;;15.30;99.90;;;;;;4905220;29;20553;-91
2022/04/22 21:43:12;;;;;;;107.85;17.13;;;15.20;99.90;;;;;;4905483;29;20118;-91
2022/04/22 21:45:41;;;;;;;113.97;15.80;;;15.20;99.90;;;;;;4921317;29;20035;-91
2022/04/22 21:48:13;;;;;;;128.40;17.30;;;15.20;99.90;;;;;;4905973;29;20482;-92
2022/04/22 21:50:54;;;;;;;117.55;16.23;;;15.10;99.90;;;;;;4905840;29;20028;-92
2022/04/22 21:53:24;;;;;;;122.68;16.52;;;15.10;99.90;;;;;;4887388;29;20056;-92
2022/04/22 21:55:54;;;;;;;128.00;17.95;;;15.00;99.90;;;;;;4886711;29;20035;-93
2022/04/22 21:58:56;;;;;;;118.07;15.77;;;15.00;99.90;;;;;;4886963;29;20032;-92
2022/04/22 22:02:31;;;;;;;;;;;;;;;;;;;;;
2022/04/22 22:05:32;;;;;;;111.35;14.73;;;14.90;99.90;;;;;;4863860;29;20037;-93
2022/04/22 22:08:31;;;;;;;96.90;14.07;;;15.00;99.90;;;;;;4812805;29;20042;-92
2022/04/22 22:28:16;;;;;;;119.78;14.95;;;14.80;99.90;;;;;;4891350;29;19985;-92
2022/04/22 22:39:06;;;;;;;109.40;14.25;;;14.70;99.90;;;;;;4821354;29;20053;-92
2022/04/22 22:44:45;;;;;;;108.00;16.13;;;14.60;99.90;;;;;;4996615;23;20059;-92
2022/04/22 22:47:14;;;;;;;84.47;15.55;;;14.60;99.90;;;;;;4905149;29;20040;-92
2022/04/22 22:49:41;;;;;;;118.03;15.95;;;14.60;99.90;;;;;;4905438;29;20533;-91
2022/04/22 22:52:08;;;;;;;107.68;15.43;;;14.60;99.90;;;;;;4904716;29;20127;-92
2022/04/22 22:54:35;;;;;;;108.78;14.57;;;14.60;99.90;;;;;;4885731;29;20025;-93
2022/04/22 22:59:43;;;;;;;114.82;16.58;;;14.50;99.90;;;;;;4917894;29;20116;-93
2022/04/22 23:02:15;;;;;;;106.90;15.48;;;14.50;99.90;;;;;;4902012;29;20055;-93
2022/04/22 23:08:21;;;;;;;97.10;14.10;;;14.40;99.90;;;;;;4862884;29;20211;-92
2022/04/22 23:11:43;;;;;;;101.40;15.23;;;14.40;99.90;;;;;;4846137;29;20041;-92
2022/04/22 23:14:22;;;;;;;96.72;15.90;;;14.40;99.90;;;;;;4843421;29;20420;-92
2022/04/22 23:17:02;;;;;;;96.78;14.75;;;14.30;99.90;;;;;;4845675;29;20033;-92
2022/04/22 23:20:19;;;;;;;;;;;;;;;;;;;;;
2022/04/22 23:22:56;;;;;;;85.28;13.50;;;14.40;99.90;;;;;;4859912;29;20030;-94
2022/04/22 23:25:41;;;;;;;85.03;14.57;;;14.30;99.90;;;;;;4844599;29;20069;-93
2022/04/22 23:42:02;;;;;;;86.75;14.20;;;14.20;99.90;;;;;;4920931;29;20112;-93
2022/04/22 23:44:29;;;;;;;98.40;15.38;;;14.10;99.90;;;;;;4904080;29;20039;-93
2022/04/22 23:47:47;;;;;;;;;;;;;;;;;;;;;
2022/04/22 23:51:23;;;;;;;;;;;;;;;;;;;;;
2022/04/22 23:54:38;;;;;;;93.85;15.45;;;14.10;99.90;;;;;;4902479;29;20032;-92
2022/04/22 23:57:05;;;;;;;83.85;12.52;;;14.00;99.90;;;;;;5086585;23;20052;-84
2022/04/22 23:59:33;;;;;;;101.30;14.95;;;14.10;99.90;;;;;;4885023;29;20044;-85
